sim
Sign-in with your pilot id or email,
or register
Callsign
Passwort

Schedule Details

Flight Number: DLH2521 (1)
Departure: Glasgow International Airport (EGPF) at 10:30
Arrival: Munich Airport (EDDM) at 12:40
Route: Lufthansa Passenger Schedule. Enter filed route here before submitting Pirep.

Weather Information
Getting current METAR information for EGPF 191120Z AUTO 07014KT 9999 NCD 15/09 Q1026
Getting current METAR information for EDDM 191120Z 08004KT 030V120 CAVOK 19/11 Q1019 NOSIG

Schedule Frequency

Route Map